createdAt,value
2018-07-09T07:54:12.700Z,100173.02
2018-07-09T07:58:27.972Z,100166.61
2018-07-09T08:00:55.653Z,100163.63
2018-07-09T08:03:23.190Z,100168.36
2018-07-09T08:05:50.671Z,100161.32
2018-07-09T08:08:18.153Z,100160.08
2018-07-09T08:10:45.533Z,100163.70
2018-07-09T08:13:27.995Z,100165.57
2018-07-09T08:15:40.929Z,100161.31
2018-07-09T08:18:08.346Z,100161.67
2018-07-09T08:20:35.862Z,100163.06
2018-07-09T08:23:03.257Z,100165.38
2018-07-09T08:25:30.840Z,100168.52
2018-07-09T08:27:58.639Z,100156.46
2018-07-09T08:30:26.195Z,100148.17
2018-07-09T08:32:53.665Z,100145.91
2018-07-09T08:35:21.225Z,100148.19
2018-07-09T08:37:48.600Z,100143.16
2018-07-09T08:40:16.350Z,100143.64
2018-07-09T08:42:44.482Z,100141.30
2018-07-09T08:45:12.118Z,100133.13
2018-07-09T08:47:39.699Z,100138.38
2018-07-09T08:50:07.142Z,100138.50
2018-07-09T08:52:34.589Z,100138.78
2018-07-09T08:55:02.603Z,100147.09
2018-07-09T08:57:30.670Z,100144.55
2018-07-09T08:59:58.149Z,100142.17
2018-07-09T09:02:25.603Z,100133.05
2018-07-09T09:04:53.061Z,100127.48
2018-07-09T09:07:20.502Z,100128.67
2018-07-09T09:09:48.480Z,100126.05
2018-07-09T09:12:15.946Z,100131.50
2018-07-09T09:14:43.342Z,100124.97
2018-07-09T09:17:11.303Z,100131.66
2018-07-09T09:19:39.118Z,100131.09
2018-07-09T09:22:06.974Z,100135.28
2018-07-09T09:24:35.121Z,100131.14
2018-07-09T09:27:02.797Z,100135.16
2018-07-09T09:29:30.389Z,100137.66
2018-07-09T09:31:58.115Z,100126.69
2018-07-09T09:34:25.605Z,100124.09
2018-07-09T09:36:53.096Z,100118.36
2018-07-09T09:39:21.274Z,100118.23
2018-07-09T09:41:49.183Z,100099.36
2018-07-09T09:44:16.789Z,100105.89
2018-07-09T09:46:44.630Z,100112.27
2018-07-09T09:49:12.078Z,100112.58
2018-07-09T09:51:39.601Z,100108.80
2018-07-09T09:54:07.115Z,100113.53
2018-07-09T09:56:34.624Z,100099.28
2018-07-09T09:59:02.508Z,100102.27
2018-07-09T10:01:30.618Z,100098.92
2018-07-09T10:03:58.012Z,100099.47
2018-07-09T10:06:25.670Z,100090.72
2018-07-09T10:08:53.166Z,100097.48
2018-07-09T10:11:20.730Z,100088.88
2018-07-09T10:13:48.512Z,100084.34
2018-07-09T10:16:15.927Z,100090.20
2018-07-09T10:18:43.349Z,100094.65
2018-07-09T10:21:10.793Z,100089.28
2018-07-09T10:23:38.338Z,100087.20
2018-07-09T10:26:06.582Z,100090.72
2018-07-09T10:28:34.891Z,100089.50
2018-07-09T10:31:02.272Z,100096.36
2018-07-09T10:33:29.728Z,100087.23
2018-07-09T10:35:57.202Z,100078.63
2018-07-09T10:38:24.674Z,100084.37
2018-07-09T10:40:52.645Z,100082.33
2018-07-09T10:43:20.233Z,100090.81
2018-07-09T10:45:48.433Z,100086.14
2018-07-09T10:48:16.699Z,100090.59
2018-07-09T10:50:44.163Z,100091.63
2018-07-09T10:53:11.741Z,100082.20
2018-07-09T10:55:39.619Z,100071.65
2018-07-09T10:58:07.336Z,100087.58
2018-07-09T11:00:34.878Z,100084.19
2018-07-09T11:03:02.345Z,100069.58
2018-07-09T11:05:30.054Z,100075.55
2018-07-09T11:07:57.370Z,100066.16
2018-07-09T11:10:25.237Z,100077.41
2018-07-09T11:12:52.842Z,100076.41
2018-07-09T11:15:21.023Z,100068.05
2018-07-09T11:17:48.713Z,100058.92
2018-07-09T11:20:16.547Z,100068.53
2018-07-09T11:22:44.106Z,100072.90
2018-07-09T11:25:12.034Z,100076.92
2018-07-09T11:27:39.522Z,100074.97
2018-07-09T11:30:07.580Z,100061.52
2018-07-09T11:32:35.589Z,100075.59
2018-07-09T11:35:03.682Z,100067.16
2018-07-09T11:37:31.360Z,100062.61
2018-07-09T11:39:59.197Z,100063.25
2018-07-09T11:42:26.666Z,100068.08
2018-07-09T11:44:54.090Z,100073.74
2018-07-09T11:47:21.623Z,100071.73
2018-07-09T11:49:48.970Z,100072.02
2018-07-09T11:52:16.634Z,100073.81
2018-07-09T11:54:44.366Z,100070.52
2018-07-09T11:57:11.787Z,100057.22
2018-07-09T11:59:39.622Z,100066.47
2018-07-09T12:02:08.199Z,100062.80
2018-07-09T12:04:36.556Z,100061.30
2018-07-09T12:07:04.086Z,100067.44
2018-07-09T12:09:31.701Z,100063.89
2018-07-09T12:11:59.765Z,100056.38
2018-07-09T12:14:27.328Z,100053.77
2018-07-09T12:16:54.885Z,100063.43
2018-07-09T12:19:22.304Z,100064.80
2018-07-09T12:21:49.867Z,100066.88
2018-07-09T12:24:17.463Z,100067.22
2018-07-09T12:26:45.321Z,100060.83
2018-07-09T12:29:12.788Z,100058.39
2018-07-09T12:31:40.816Z,100060.34
2018-07-09T12:34:08.508Z,100061.95
2018-07-09T12:36:36.106Z,100064.30
2018-07-09T12:39:04.201Z,100054.63
2018-07-09T12:41:31.605Z,100058.56
2018-07-09T12:43:59.398Z,100059.33
2018-07-09T12:46:26.906Z,100053.89
2018-07-09T12:48:54.604Z,100052.30
2018-07-09T12:51:22.630Z,100051.48
2018-07-09T12:53:50.200Z,100050.05
2018-07-09T12:56:17.632Z,100037.81
2018-07-09T12:58:45.697Z,100035.70
2018-07-09T13:01:13.167Z,100031.03
2018-07-09T13:03:41.467Z,100031.81
2018-07-09T13:06:09.206Z,100042.53
2018-07-09T13:08:37.034Z,100038.75
2018-07-09T13:11:05.110Z,100036.50
2018-07-09T13:13:33.273Z,100038.73
2018-07-09T13:16:01.733Z,100038.09
2018-07-09T13:18:29.439Z,100042.78
2018-07-09T13:20:56.891Z,100043.87
2018-07-09T13:23:24.913Z,100038.27
2018-07-09T13:25:52.729Z,100039.02
2018-07-09T13:28:20.789Z,100038.11
2018-07-09T13:30:48.538Z,100032.37
2018-07-09T13:33:16.393Z,100030.78
2018-07-09T13:35:43.885Z,100031.45
2018-07-09T13:38:11.649Z,100039.12
2018-07-09T13:40:39.992Z,100035.09
2018-07-09T13:43:08.451Z,100031.95
2018-07-09T13:45:36.240Z,100027.81
2018-07-09T13:48:04.366Z,100023.34
2018-07-09T13:50:31.893Z,100015.25
2018-07-09T13:52:59.478Z,100019.84
2018-07-09T13:55:27.090Z,100012.82
2018-07-09T13:57:54.799Z,100015.95
2018-07-09T14:00:22.298Z,100014.23
2018-07-09T14:02:50.873Z,100002.52
2018-07-09T14:05:18.471Z,100005.11
2018-07-09T14:07:45.870Z,100001.59
2018-07-09T14:10:13.981Z,99998.59
2018-07-09T14:12:41.389Z,99992.48
2018-07-09T14:15:08.914Z,99995.99
2018-07-09T14:17:36.374Z,99991.57
2018-07-09T14:20:15.710Z,99984.92
2018-07-09T14:22:43.161Z,99981.25
2018-07-09T14:25:10.557Z,99982.05
2018-07-09T14:27:38.050Z,99971.23
2018-07-09T14:30:05.554Z,99965.75
2018-07-09T14:32:33.249Z,99959.32
2018-07-09T14:35:00.752Z,99949.28
2018-07-09T14:37:28.277Z,99947.84
2018-07-09T14:39:55.761Z,99944.98
2018-07-09T14:42:23.245Z,99944.08
2018-07-09T14:44:51.098Z,99940.67
2018-07-09T14:47:18.537Z,99943.17
2018-07-09T14:49:45.956Z,99937.95
2018-07-09T14:52:13.382Z,99934.30
2018-07-09T14:54:41.558Z,99946.30
2018-07-09T14:57:09.342Z,99933.66
2018-07-09T14:59:36.862Z,99933.02
2018-07-09T15:02:04.893Z,99933.54
2018-07-09T15:04:32.515Z,99921.80
2018-07-09T15:07:00.313Z,99928.83
2018-07-09T15:09:27.966Z,99928.30
2018-07-09T15:11:56.003Z,99920.48
2018-07-09T15:14:23.747Z,99924.94
2018-07-09T15:16:51.398Z,99921.42
2018-07-09T15:19:19.626Z,99927.16
2018-07-09T15:21:47.263Z,99915.69
2018-07-09T15:24:14.919Z,99914.78
2018-07-09T15:26:42.522Z,99921.27
2018-07-09T15:29:10.573Z,99917.13
2018-07-09T15:31:49.223Z,99920.11
2018-07-09T15:34:16.757Z,99913.19
2018-07-09T15:36:44.125Z,99908.63
2018-07-09T15:39:11.553Z,99910.33
2018-07-09T15:41:38.930Z,99909.95
2018-07-09T15:44:06.409Z,99911.50
2018-07-09T15:46:33.948Z,99913.61
2018-07-09T15:49:01.594Z,99908.78
2018-07-09T15:51:29.091Z,99915.31
2018-07-09T15:53:56.538Z,99904.70
2018-07-09T15:56:24.055Z,99904.91
2018-07-09T15:58:51.558Z,99896.45
2018-07-09T16:01:19.032Z,99892.27
2018-07-09T16:03:46.455Z,99888.76
2018-07-09T16:06:13.961Z,99893.33
2018-07-09T16:08:41.366Z,99889.17
2018-07-09T16:11:09.299Z,99889.17
2018-07-09T16:13:36.940Z,99884.08
2018-07-09T16:16:04.503Z,99874.56
2018-07-09T16:26:49.765Z,99873.24
2018-07-09T16:29:17.210Z,99864.91
2018-07-09T16:31:44.799Z,99862.67
2018-07-09T16:34:12.286Z,99865.17
2018-07-09T16:36:40.261Z,99864.27
2018-07-09T16:39:07.710Z,99860.11
2018-07-09T16:41:35.158Z,99860.75
2018-07-09T16:44:02.822Z,99862.19
2018-07-09T16:46:30.472Z,99856.06
2018-07-09T16:48:57.890Z,99856.97
2018-07-09T16:51:25.317Z,99855.02
2018-07-09T16:53:53.146Z,99855.27
2018-07-09T16:56:20.991Z,99853.72
2018-07-09T16:58:48.957Z,99849.65
2018-07-09T17:01:16.684Z,99850.06
2018-07-09T17:03:44.258Z,99847.31
2018-07-09T17:06:11.682Z,99843.53
2018-07-09T17:08:39.558Z,99834.28
2018-07-09T17:11:07.506Z,99838.73
2018-07-09T17:13:36.057Z,99844.06
2018-07-09T17:16:04.342Z,99831.53
2018-07-09T17:18:34.018Z,99833.08
2018-07-09T17:21:01.855Z,99826.70
2018-07-09T17:23:30.022Z,99830.21
2018-07-09T17:25:57.991Z,99825.41
2018-07-09T17:28:25.402Z,99833.08
2018-07-09T17:30:52.917Z,99811.06
2018-07-09T17:33:20.841Z,99819.78
2018-07-09T17:35:50.884Z,99816.66
2018-07-09T17:38:19.691Z,99815.48
2018-07-09T17:40:47.391Z,99811.30
2018-07-09T17:43:15.295Z,99811.18
2018-07-09T17:45:43.151Z,99812.02
2018-07-09T17:48:10.924Z,99808.81
2018-07-09T17:50:38.440Z,99800.61
2018-07-09T17:53:06.355Z,99804.39
2018-07-09T17:55:34.344Z,99816.74
2018-07-09T17:58:02.157Z,99816.02
2018-07-09T18:00:30.145Z,99814.95
2018-07-09T18:02:58.289Z,99811.56
2018-07-09T18:05:25.754Z,99809.48
2018-07-09T18:10:03.049Z,99802.95
2018-07-09T18:12:32.553Z,99805.97
2018-07-09T18:15:00.504Z,99805.33
2018-07-09T18:17:28.350Z,99809.63
2018-07-09T18:19:55.965Z,99801.41
2018-07-09T18:22:23.381Z,99798.53
2018-07-09T18:24:51.045Z,99803.16
2018-07-09T18:27:18.618Z,99802.92
2018-07-09T18:29:46.268Z,99810.59
2018-07-09T18:32:17.129Z,99800.13
2018-07-09T18:34:45.091Z,99805.23
2018-07-09T18:37:13.507Z,99792.63
2018-07-09T18:39:42.292Z,99794.28
2018-07-09T18:42:10.484Z,99792.66
2018-07-09T18:44:38.027Z,99799.56
2018-07-09T18:47:06.835Z,99790.05
2018-07-09T18:49:34.527Z,99786.39
2018-07-09T18:52:02.583Z,99793.56
2018-07-09T18:54:30.221Z,99790.78
2018-07-09T18:56:58.106Z,99784.28
2018-07-09T18:59:27.238Z,99783.98
2018-07-09T19:01:55.118Z,99785.16
2018-07-09T19:04:22.731Z,99783.45
2018-07-09T19:06:53.158Z,99787.53
2018-07-09T19:09:21.245Z,99786.73
2018-07-09T19:11:49.117Z,99785.72
2018-07-09T19:14:18.819Z,99785.83
2018-07-09T19:16:57.966Z,99795.45
2018-07-09T19:19:36.674Z,99802.62
2018-07-09T19:22:04.446Z,99800.66
2018-07-09T19:24:30.781Z,99798.70
2018-07-09T19:26:57.066Z,99796.89
2018-07-09T19:29:23.617Z,99802.25
2018-07-09T19:31:49.928Z,99815.53
2018-07-09T19:34:16.170Z,99807.87
2018-07-09T19:36:42.613Z,99807.61
2018-07-09T19:39:09.320Z,99805.00
2018-07-09T19:41:35.789Z,99805.12
2018-07-09T19:44:02.569Z,99807.88
2018-07-09T19:46:28.995Z,99805.91
2018-07-09T19:48:55.409Z,99816.33
2018-07-09T19:51:21.826Z,99811.12
2018-07-09T19:53:48.255Z,99813.61
2018-07-09T19:56:14.891Z,99819.08
2018-07-09T19:58:41.154Z,99813.98
2018-07-09T20:01:07.491Z,99825.08
2018-07-09T20:03:33.729Z,99820.05
2018-07-09T20:06:00.480Z,99826.96
2018-07-09T20:08:26.789Z,99821.72
2018-07-09T20:10:53.226Z,99821.95
2018-07-09T20:13:19.700Z,99818.02
2018-07-09T20:15:46.018Z,99817.77
2018-07-09T20:18:12.265Z,99818.17
2018-07-09T20:20:38.505Z,99815.16
2018-07-09T20:23:04.950Z,99821.22
2018-07-09T20:25:31.318Z,99814.84
2018-07-09T20:27:57.605Z,99816.80
2018-07-09T20:30:24.094Z,99815.37
2018-07-09T20:32:50.500Z,99817.18
2018-07-09T20:35:16.810Z,99812.09
2018-07-09T20:37:43.081Z,99811.94
2018-07-09T20:40:09.369Z,99809.37
2018-07-09T20:42:35.625Z,99807.91
2018-07-09T20:45:02.371Z,99808.05
2018-07-09T20:47:29.117Z,99804.92
2018-07-09T20:49:55.497Z,99802.05
2018-07-09T20:52:21.872Z,99806.97
2018-07-09T20:54:48.146Z,99805.53
2018-07-09T20:57:14.534Z,99806.61
2018-07-09T20:59:40.777Z,99802.45
2018-07-09T21:02:07.198Z,99801.80
2018-07-09T21:04:33.678Z,99805.07
2018-07-09T21:07:00.119Z,99810.80
2018-07-09T21:09:26.406Z,99805.98
2018-07-09T21:11:52.969Z,99799.98
2018-07-09T21:14:19.339Z,99793.31
2018-07-09T21:16:45.682Z,99798.14
2018-07-09T21:19:12.044Z,99805.58
2018-07-09T21:21:38.281Z,99797.51
2018-07-09T21:24:04.818Z,99800.27
2018-07-09T21:26:31.112Z,99810.42
2018-07-09T21:28:57.442Z,99801.41
2018-07-09T21:31:23.854Z,99802.45
2018-07-09T21:33:50.281Z,99799.86
2018-07-09T21:36:16.777Z,99797.48
2018-07-09T21:38:43.174Z,99791.75
2018-07-09T21:41:09.521Z,99787.05
2018-07-09T21:43:35.850Z,99789.81
2018-07-09T21:46:02.088Z,99796.84
2018-07-09T21:48:29.785Z,99788.63
2018-07-09T21:50:54.687Z,99792.68
2018-07-09T21:53:21.297Z,99790.73
2018-07-09T21:55:47.573Z,99801.17
2018-07-09T21:58:13.942Z,99794.64
2018-07-09T22:00:40.258Z,99794.64
2018-07-09T22:03:06.587Z,99789.42
2018-07-09T22:05:32.933Z,99784.47
2018-07-09T22:07:59.278Z,99792.42
2018-07-09T22:10:25.593Z,99786.14
2018-07-09T22:12:51.841Z,99786.94
2018-07-09T22:15:18.416Z,99789.64
2018-07-09T22:17:44.678Z,99779.75
2018-07-09T22:20:10.965Z,99772.17
2018-07-09T22:22:37.289Z,99784.58
2018-07-09T22:25:03.805Z,99782.72
2018-07-09T22:27:30.233Z,99774.13
2018-07-09T22:29:56.985Z,99781.56
2018-07-09T22:32:24.423Z,99781.28
2018-07-09T22:34:51.911Z,99775.95
2018-07-09T22:37:23.045Z,99771.78
2018-07-09T22:39:52.587Z,99775.83
2018-07-09T22:42:20.510Z,99765.02
2018-07-09T22:44:47.993Z,99775.18
2018-07-09T22:47:15.529Z,99773.90
2018-07-09T22:49:43.009Z,99774.16
2018-07-09T22:52:10.706Z,99778.31
2018-07-09T22:54:38.151Z,99789.80
2018-07-09T22:57:05.597Z,99804.39
2018-07-09T22:59:33.099Z,99817.81
2018-07-09T23:02:00.581Z,99812.86
2018-07-09T23:04:28.362Z,99815.41
2018-07-09T23:06:55.863Z,99822.31
2018-07-09T23:09:57.531Z,99809.39
2018-07-09T23:12:38.177Z,99802.93
2018-07-09T23:15:28.417Z,99797.89
2018-07-09T23:18:06.963Z,99790.73
2018-07-09T23:20:48.074Z,99792.84
2018-07-09T23:23:14.323Z,99796.63
2018-07-09T23:25:40.782Z,99793.12
2018-07-09T23:28:07.363Z,99790.39
2018-07-09T23:30:33.645Z,99784.39
2018-07-09T23:33:00.166Z,99784.52
2018-07-09T23:35:26.453Z,99779.72
2018-07-09T23:37:52.746Z,99783.34
2018-07-09T23:40:18.984Z,99780.63
2018-07-09T23:42:45.406Z,99773.07
2018-07-09T23:45:11.694Z,99777.14
2018-07-09T23:47:38.162Z,99781.56
2018-07-09T23:50:04.438Z,99774.27
2018-07-09T23:52:30.678Z,99764.87
2018-07-09T23:54:57.029Z,99769.44
2018-07-09T23:59:40.179Z,99763.97
